Time;durP1;ratioP1;P1;durP2;ratioP2;P2;SDS_P1;SDS_P2;PMS_P1;PMS_P2;Temp;Humidity;BMP_temperature;BMP_pressure;BME280_temperature;BME280_humidity;BME280_pressure;Samples;Min_cycle;Max_cycle;Signal;HPM_P1;HPM_P2
2021/09/06 00:01:09;;;;;;;9.13;5.57;;;14.70;76.20;;;;;;5095351;28;20388;-77
2021/09/06 00:03:34;;;;;;;9.52;6.10;;;14.60;76.00;;;;;;5094724;28;20050;-77
2021/09/06 00:06:00;;;;;;;6.78;5.30;;;14.60;76.10;;;;;;5095088;28;20027;-77
2021/09/06 00:08:26;;;;;;;7.68;5.32;;;14.60;76.30;;;;;;5094859;28;20032;-77
2021/09/06 00:11:06;;;;;;;9.02;6.07;;;14.60;76.40;;;;;;5095094;28;20054;-77
2021/09/06 00:13:32;;;;;;;9.25;5.78;;;14.60;76.40;;;;;;5095039;28;20027;-77
2021/09/06 00:15:58;;;;;;;10.07;5.70;;;14.70;76.20;;;;;;5095101;28;20049;-78
2021/09/06 00:18:25;;;;;;;10.05;6.10;;;14.70;76.00;;;;;;5094964;28;20050;-78
2021/09/06 00:20:51;;;;;;;10.80;6.88;;;14.70;75.90;;;;;;5094994;28;20391;-78
2021/09/06 00:23:17;;;;;;;11.43;5.75;;;14.70;76.50;;;;;;5095245;28;20031;-78
2021/09/06 00:25:42;;;;;;;8.90;5.82;;;14.70;75.70;;;;;;5113054;28;20028;-78
2021/09/06 00:28:08;;;;;;;8.73;6.10;;;14.80;75.40;;;;;;5112896;28;20108;-78
2021/09/06 00:30:34;;;;;;;10.23;5.45;;;14.70;75.60;;;;;;5094867;28;20047;-77
2021/09/06 00:33:00;;;;;;;7.50;5.25;;;14.70;75.90;;;;;;5094687;28;20384;-78
2021/09/06 00:35:26;;;;;;;8.98;5.97;;;14.70;76.70;;;;;;5094402;28;20026;-78
2021/09/06 00:37:51;;;;;;;7.85;5.68;;;14.80;75.50;;;;;;5094687;28;20035;-78
2021/09/06 00:40:17;;;;;;;6.97;5.90;;;14.80;75.30;;;;;;5095043;28;20019;-77
2021/09/06 00:42:42;;;;;;;8.98;4.95;;;14.90;75.20;;;;;;5094618;28;20028;-77
2021/09/06 00:45:09;;;;;;;6.40;5.00;;;14.80;75.10;;;;;;5094520;28;20027;-76
2021/09/06 00:47:36;;;;;;;7.03;5.00;;;14.80;75.10;;;;;;5112547;28;20040;-77
2021/09/06 00:50:06;;;;;;;7.85;5.70;;;14.80;75.00;;;;;;5094757;28;20034;-77
2021/09/06 00:52:37;;;;;;;6.43;4.97;;;14.70;75.60;;;;;;5112964;28;20027;-76
2021/09/06 00:55:03;;;;;;;8.32;5.43;;;14.70;75.70;;;;;;5094676;28;20055;-77
2021/09/06 00:57:29;;;;;;;6.43;4.68;;;14.80;75.70;;;;;;5096183;28;20031;-77
2021/09/06 00:59:55;;;;;;;7.95;5.68;;;14.90;75.60;;;;;;5098570;28;20088;-77
2021/09/06 01:02:21;;;;;;;9.57;5.75;;;15.00;74.80;;;;;;5098381;28;20511;-77
2021/09/06 01:04:47;;;;;;;6.97;5.13;;;15.00;74.70;;;;;;5098490;28;20024;-77
2021/09/06 01:07:12;;;;;;;9.55;5.60;;;15.00;74.50;;;;;;5116442;28;20114;-77
2021/09/06 01:09:39;;;;;;;8.13;5.90;;;15.00;74.30;;;;;;5098233;28;20072;-77
2021/09/06 01:12:06;;;;;;;10.13;6.10;;;14.90;74.10;;;;;;5116581;28;20028;-77
2021/09/06 01:14:31;;;;;;;8.75;5.20;;;14.90;74.20;;;;;;5098295;28;20392;-77
2021/09/06 01:16:58;;;;;;;5.63;4.97;;;15.00;74.30;;;;;;5098272;28;20019;-77
2021/09/06 01:19:24;;;;;;;8.95;5.40;;;15.00;74.30;;;;;;5116504;28;20027;-77
2021/09/06 01:21:50;;;;;;;7.15;5.57;;;15.00;74.20;;;;;;5098078;28;20024;-77
2021/09/06 01:24:17;;;;;;;9.63;5.63;;;15.00;74.20;;;;;;5098191;28;20352;-77
2021/09/06 01:26:47;;;;;;;10.80;5.95;;;15.00;74.30;;;;;;5081190;28;20028;-77
2021/09/06 01:29:13;;;;;;;9.02;5.57;;;15.10;74.30;;;;;;5098211;28;20557;-77
2021/09/06 01:31:39;;;;;;;11.48;5.95;;;15.00;74.00;;;;;;5097892;28;20044;-77
2021/09/06 01:34:06;;;;;;;9.27;5.88;;;15.00;74.00;;;;;;5097906;28;20057;-77
2021/09/06 01:36:31;;;;;;;6.82;5.50;;;14.90;74.30;;;;;;5097736;28;20031;-77
2021/09/06 01:38:57;;;;;;;7.22;5.55;;;14.90;74.50;;;;;;5097752;28;20020;-78
2021/09/06 01:41:22;;;;;;;7.55;5.82;;;14.90;74.50;;;;;;5116237;28;20028;-77
2021/09/06 01:43:48;;;;;;;7.80;5.38;;;14.80;74.40;;;;;;5097620;28;20023;-78
2021/09/06 01:46:14;;;;;;;9.68;6.50;;;14.80;74.60;;;;;;5097905;28;20562;-78
2021/09/06 01:48:40;;;;;;;7.57;6.10;;;14.80;74.80;;;;;;5115988;28;20118;-78
2021/09/06 01:51:05;;;;;;;8.48;6.15;;;14.70;76.00;;;;;;5115926;28;20099;-78
2021/09/06 01:53:31;;;;;;;7.15;5.70;;;14.70;75.40;;;;;;5097829;28;20051;-78
2021/09/06 01:55:57;;;;;;;8.38;5.57;;;14.80;75.10;;;;;;5082093;28;20027;-78
2021/09/06 01:58:22;;;;;;;7.53;6.20;;;14.80;75.10;;;;;;5102462;28;20030;-78
2021/09/06 02:00:48;;;;;;;10.25;6.28;;;14.70;74.90;;;;;;5106800;28;20031;-77
2021/09/06 02:03:14;;;;;;;8.52;5.68;;;14.70;75.20;;;;;;5096975;28;20195;-78
2021/09/06 02:05:39;;;;;;;8.73;6.38;;;14.60;75.40;;;;;;5115443;28;20024;-77
2021/09/06 02:08:05;;;;;;;8.52;5.70;;;14.60;75.50;;;;;;5096556;28;20078;-78
2021/09/06 02:10:32;;;;;;;8.27;6.10;;;14.60;75.60;;;;;;5080272;28;20019;-79
2021/09/06 02:12:57;;;;;;;7.80;5.75;;;14.50;75.80;;;;;;5115516;28;20020;-78
2021/09/06 02:15:23;;;;;;;10.63;6.85;;;14.50;76.00;;;;;;5097327;28;20397;-78
2021/09/06 02:17:49;;;;;;;6.75;5.60;;;14.50;76.10;;;;;;5096951;28;20083;-78
2021/09/06 02:20:14;;;;;;;8.35;5.82;;;14.50;76.30;;;;;;5097029;28;20526;-79
2021/09/06 02:22:40;;;;;;;7.07;5.32;;;14.40;76.30;;;;;;5096820;28;20475;-78
2021/09/06 02:25:06;;;;;;;6.65;5.20;;;14.50;76.30;;;;;;5096612;28;20035;-78
2021/09/06 02:27:32;;;;;;;9.88;6.10;;;14.50;76.10;;;;;;5096944;28;20053;-78
2021/09/06 02:29:57;;;;;;;8.93;6.35;;;14.50;76.10;;;;;;5096778;28;20519;-77
2021/09/06 02:32:23;;;;;;;6.90;5.68;;;14.50;76.10;;;;;;5096626;28;20028;-78
2021/09/06 02:34:48;;;;;;;7.68;5.90;;;14.50;76.20;;;;;;5114930;28;20019;-78
2021/09/06 02:37:15;;;;;;;9.40;6.53;;;14.50;76.30;;;;;;5096865;28;20019;-77
2021/09/06 02:39:41;;;;;;;6.45;5.32;;;14.50;76.20;;;;;;5096762;28;20036;-77
2021/09/06 02:42:06;;;;;;;8.10;5.55;;;14.50;76.30;;;;;;5114815;28;20019;-78
2021/09/06 02:44:32;;;;;;;8.65;6.05;;;14.50;76.20;;;;;;5096529;28;20024;-77
2021/09/06 02:46:57;;;;;;;8.35;5.55;;;14.60;76.10;;;;;;5096230;28;20024;-77
2021/09/06 02:49:23;;;;;;;7.47;5.63;;;14.60;76.30;;;;;;5096307;28;20379;-77
2021/09/06 02:51:50;;;;;;;7.25;5.43;;;14.60;75.90;;;;;;5114671;28;20023;-77
2021/09/06 02:54:16;;;;;;;8.65;5.88;;;14.60;76.10;;;;;;5096491;28;20467;-78
2021/09/06 02:56:42;;;;;;;8.15;6.45;;;14.60;76.20;;;;;;5096289;28;20024;-77
2021/09/06 02:59:08;;;;;;;10.25;6.40;;;14.60;76.10;;;;;;5096088;28;20030;-78
2021/09/06 03:01:33;;;;;;;8.18;5.32;;;14.70;76.00;;;;;;5096293;28;20024;-78
2021/09/06 03:03:59;;;;;;;8.05;6.18;;;14.60;75.90;;;;;;5095832;28;20100;-77
2021/09/06 03:06:26;;;;;;;11.45;6.18;;;14.60;75.90;;;;;;5096032;28;20123;-77
2021/09/06 03:08:52;;;;;;;8.80;6.25;;;14.40;76.30;;;;;;5096248;28;20036;-78
2021/09/06 03:11:23;;;;;;;10.13;6.55;;;14.30;77.10;;;;;;5095893;28;20084;-78
2021/09/06 03:13:49;;;;;;;8.63;6.38;;;14.20;77.50;;;;;;5096238;28;20024;-77
2021/09/06 03:16:17;;;;;;;11.23;6.28;;;14.10;77.70;;;;;;5095888;28;20023;-77
2021/09/06 03:18:42;;;;;;;7.85;5.72;;;14.10;78.10;;;;;;5079121;28;20023;-77
2021/09/06 03:21:09;;;;;;;11.40;6.43;;;14.10;78.20;;;;;;5094893;28;20036;-77
2021/09/06 03:23:36;;;;;;;9.27;6.50;;;14.10;78.10;;;;;;5096009;28;20028;-77
2021/09/06 03:26:01;;;;;;;7.95;6.32;;;14.10;78.20;;;;;;5095492;28;20038;-77
2021/09/06 03:28:27;;;;;;;8.98;6.30;;;14.10;78.20;;;;;;5114230;28;20039;-77
2021/09/06 03:30:53;;;;;;;9.05;6.47;;;14.10;78.10;;;;;;5113964;28;20023;-76
2021/09/06 03:33:18;;;;;;;8.85;5.95;;;14.20;77.80;;;;;;5095842;28;20028;-77
2021/09/06 03:35:44;;;;;;;9.15;5.93;;;14.20;77.40;;;;;;5095326;28;20059;-77
2021/09/06 03:38:13;;;;;;;10.07;5.85;;;14.20;77.30;;;;;;5130540;27;20024;-78
2021/09/06 03:40:39;;;;;;;7.93;5.78;;;14.10;77.40;;;;;;5121212;27;20027;-78
2021/09/06 03:43:05;;;;;;;6.97;5.63;;;14.10;77.60;;;;;;5102535;28;20032;-78
2021/09/06 03:45:31;;;;;;;8.95;6.65;;;14.10;78.10;;;;;;5078894;28;20409;-78
2021/09/06 03:47:58;;;;;;;9.32;6.82;;;14.00;78.50;;;;;;5095612;28;20046;-78
2021/09/06 03:50:23;;;;;;;9.15;6.57;;;13.90;78.80;;;;;;5095076;28;20022;-77
2021/09/06 03:52:49;;;;;;;9.52;7.13;;;13.90;79.20;;;;;;5095116;28;20114;-78
2021/09/06 03:55:15;;;;;;;13.15;7.53;;;13.80;79.60;;;;;;5094987;28;20168;-78
2021/09/06 03:57:41;;;;;;;10.80;6.68;;;13.70;80.20;;;;;;5113387;28;20023;-77
2021/09/06 04:00:08;;;;;;;12.43;7.90;;;13.70;80.50;;;;;;5095046;28;20110;-77
2021/09/06 04:02:33;;;;;;;11.18;7.65;;;13.70;80.50;;;;;;5095276;28;20040;-78
2021/09/06 04:05:00;;;;;;;11.13;7.40;;;13.70;80.50;;;;;;5094820;28;20490;-78
2021/09/06 04:07:26;;;;;;;9.60;6.63;;;13.80;80.50;;;;;;5095137;28;20036;-78
2021/09/06 04:09:51;;;;;;;10.63;6.90;;;13.80;80.20;;;;;;5113403;28;20195;-78
2021/09/06 04:12:17;;;;;;;11.00;7.40;;;13.80;80.30;;;;;;5094918;28;20472;-78
2021/09/06 04:14:43;;;;;;;9.60;6.97;;;13.80;81.10;;;;;;5094748;28;20067;-78
2021/09/06 04:17:09;;;;;;;8.82;6.60;;;13.80;80.10;;;;;;5113151;28;20464;-78
2021/09/06 04:19:34;;;;;;;11.32;7.20;;;13.90;80.00;;;;;;5094918;28;20118;-78
2021/09/06 04:22:02;;;;;;;13.55;6.70;;;13.90;79.80;;;;;;5094912;28;20468;-78
2021/09/06 04:24:28;;;;;;;20.92;7.65;;;13.90;79.70;;;;;;5113159;28;20027;-78
2021/09/06 04:26:55;;;;;;;10.15;6.93;;;13.90;79.50;;;;;;5113281;28;20076;-78
2021/09/06 04:29:21;;;;;;;10.93;7.05;;;13.80;79.40;;;;;;5095222;28;20023;-77
2021/09/06 04:31:48;;;;;;;10.00;6.82;;;13.80;79.60;;;;;;5099456;28;20031;-77
2021/09/06 04:34:15;;;;;;;11.50;7.00;;;13.70;79.80;;;;;;5122530;28;20026;-78
2021/09/06 04:36:41;;;;;;;10.50;7.38;;;13.70;80.00;;;;;;5120046;28;20460;-77
2021/09/06 04:39:08;;;;;;;12.35;7.72;;;13.80;79.90;;;;;;5100336;28;20023;-77
2021/09/06 04:41:34;;;;;;;8.60;6.72;;;13.70;80.10;;;;;;5100652;28;20023;-77
2021/09/06 04:44:00;;;;;;;8.45;6.85;;;13.70;80.20;;;;;;5100444;28;20042;-77
2021/09/06 04:46:25;;;;;;;11.13;7.45;;;13.70;80.30;;;;;;5099092;28;20055;-77
2021/09/06 04:48:51;;;;;;;12.85;7.68;;;13.70;80.50;;;;;;5098442;28;20031;-77
2021/09/06 04:51:17;;;;;;;16.80;7.65;;;13.70;81.10;;;;;;5098488;28;20042;-76
2021/09/06 04:53:46;;;;;;;11.93;7.90;;;13.60;81.00;;;;;;5098408;28;20051;-76
2021/09/06 04:56:12;;;;;;;11.48;7.38;;;13.60;80.80;;;;;;5098310;28;20027;-77
2021/09/06 04:58:38;;;;;;;10.15;7.43;;;13.60;80.80;;;;;;5097604;28;20368;-76
2021/09/06 05:01:04;;;;;;;11.55;7.53;;;13.60;80.80;;;;;;5097726;28;20042;-77
2021/09/06 05:03:29;;;;;;;10.18;7.15;;;13.70;80.90;;;;;;5097957;28;20513;-77
2021/09/06 05:05:59;;;;;;;13.82;8.15;;;13.70;80.70;;;;;;5098279;28;20115;-76
2021/09/06 05:08:25;;;;;;;13.10;6.80;;;13.70;80.50;;;;;;5116639;28;20038;-76
2021/09/06 05:10:51;;;;;;;9.70;7.18;;;13.70;80.30;;;;;;5098122;28;20110;-77
2021/09/06 05:13:17;;;;;;;13.80;6.68;;;13.70;80.20;;;;;;5098410;28;20514;-76
2021/09/06 05:15:43;;;;;;;10.48;6.80;;;13.80;80.00;;;;;;5098039;28;20051;-76
2021/09/06 05:18:10;;;;;;;10.48;7.18;;;13.80;80.00;;;;;;5098091;28;20030;-76
2021/09/06 05:20:36;;;;;;;13.13;7.47;;;13.80;79.90;;;;;;5098242;28;20108;-76
2021/09/06 05:23:01;;;;;;;11.50;7.18;;;13.90;79.80;;;;;;5097728;28;20486;-77
2021/09/06 05:25:29;;;;;;;10.82;7.00;;;13.90;79.70;;;;;;5097983;28;20031;-77
2021/09/06 05:27:54;;;;;;;11.40;7.75;;;13.90;79.50;;;;;;5098155;28;20118;-76
2021/09/06 05:30:21;;;;;;;14.88;9.05;;;14.00;79.20;;;;;;5097779;28;20506;-77
2021/09/06 05:32:46;;;;;;;13.30;7.80;;;13.80;79.20;;;;;;5097807;28;20106;-77
2021/09/06 05:35:13;;;;;;;14.73;7.90;;;13.90;79.40;;;;;;5097595;28;20119;-76
2021/09/06 05:37:39;;;;;;;11.18;7.43;;;13.90;79.30;;;;;;5081179;28;20031;-76
2021/09/06 05:40:05;;;;;;;14.23;8.27;;;14.10;79.10;;;;;;5097504;28;20030;-77
2021/09/06 05:42:31;;;;;;;10.32;7.50;;;14.20;79.10;;;;;;5097444;28;20024;-77
2021/09/06 05:44:57;;;;;;;12.85;7.95;;;14.30;78.90;;;;;;5096315;28;20098;-77
2021/09/06 05:47:23;;;;;;;14.05;8.27;;;14.40;78.50;;;;;;5097097;28;20524;-77
2021/09/06 05:49:48;;;;;;;11.07;7.45;;;14.40;78.30;;;;;;5097454;28;20024;-77
2021/09/06 05:52:14;;;;;;;13.32;6.97;;;14.50;78.10;;;;;;5097344;28;20024;-77
2021/09/06 05:54:40;;;;;;;11.38;7.03;;;14.60;77.80;;;;;;5097515;28;20474;-78
2021/09/06 05:57:05;;;;;;;10.18;7.60;;;14.70;77.60;;;;;;5096875;28;20432;-77
2021/09/06 05:59:31;;;;;;;10.32;6.97;;;14.90;77.20;;;;;;5096967;28;20027;-78
2021/09/06 06:01:56;;;;;;;11.00;6.50;;;14.90;76.90;;;;;;5096869;28;20044;-77
2021/09/06 06:04:22;;;;;;;11.80;7.60;;;15.00;76.60;;;;;;5097390;28;20031;-77
2021/09/06 06:06:48;;;;;;;12.55;8.60;;;15.10;76.30;;;;;;5097019;28;20383;-77
2021/09/06 06:09:13;;;;;;;9.90;6.72;;;15.10;75.80;;;;;;5096811;28;20505;-77
2021/09/06 06:11:40;;;;;;;10.32;7.43;;;15.10;75.90;;;;;;5096820;28;20027;-77
2021/09/06 06:14:06;;;;;;;9.90;7.13;;;15.20;76.00;;;;;;5096945;28;20023;-77
2021/09/06 06:16:32;;;;;;;8.95;7.13;;;15.20;76.00;;;;;;5114958;28;20031;-77
2021/09/06 06:18:58;;;;;;;10.02;7.18;;;15.30;76.00;;;;;;5114861;28;20028;-78
2021/09/06 06:21:24;;;;;;;11.15;6.97;;;15.40;75.70;;;;;;5096530;28;20027;-78
2021/09/06 06:23:50;;;;;;;9.98;7.45;;;15.40;75.60;;;;;;5096962;28;20062;-77
2021/09/06 06:26:16;;;;;;;9.82;6.80;;;15.50;75.40;;;;;;5096747;28;20055;-77
2021/09/06 06:28:42;;;;;;;10.57;6.88;;;15.60;75.10;;;;;;5114579;28;20067;-77
2021/09/06 06:31:07;;;;;;;9.52;7.10;;;15.70;75.10;;;;;;5096376;28;20024;-77
2021/09/06 06:33:33;;;;;;;9.23;6.63;;;15.80;75.00;;;;;;5096675;28;20080;-76
2021/09/06 06:36:01;;;;;;;9.65;7.57;;;15.90;74.90;;;;;;5096151;28;20024;-77
2021/09/06 06:38:28;;;;;;;16.27;7.50;;;15.90;74.40;;;;;;5096670;28;20114;-77
2021/09/06 06:40:53;;;;;;;14.13;7.13;;;16.00;74.50;;;;;;5114852;28;20118;-79
2021/09/06 06:43:19;;;;;;;14.25;6.82;;;16.30;79.60;;;;;;5096986;28;20127;-76
2021/09/06 06:45:45;;;;;;;12.15;6.60;;;16.40;79.70;;;;;;5115051;28;20031;-80
2021/09/06 06:48:10;;;;;;;11.48;7.57;;;16.60;80.20;;;;;;5095968;28;20035;-78
2021/09/06 06:50:37;;;;;;;9.50;6.85;;;16.80;78.10;;;;;;5096919;28;20478;-80
2021/09/06 06:53:03;;;;;;;11.93;7.45;;;17.10;77.80;;;;;;5096158;28;20576;-83
2021/09/06 06:55:29;;;;;;;37.88;12.90;;;17.20;76.30;;;;;;5095377;28;20126;-79
2021/09/06 06:57:54;;;;;;;22.90;10.38;;;17.40;75.80;;;;;;5114493;28;20051;-80
2021/09/06 07:00:20;;;;;;;20.50;9.13;;;17.50;74.20;;;;;;5114494;28;20099;-85
2021/09/06 07:02:47;;;;;;;22.90;9.23;;;17.70;74.70;;;;;;5129488;27;20059;-76
2021/09/06 07:05:12;;;;;;;13.25;7.68;;;17.70;73.00;;;;;;5114235;28;20479;-76
2021/09/06 07:07:39;;;;;;;15.48;8.50;;;17.80;70.50;;;;;;5114151;28;20038;-74
2021/09/06 07:10:08;;;;;;;11.88;7.65;;;18.00;70.30;;;;;;5114189;28;20030;-76
2021/09/06 07:12:33;;;;;;;12.48;7.55;;;18.10;69.50;;;;;;5096081;28;20026;-76
2021/09/06 07:14:59;;;;;;;10.82;6.97;;;18.30;69.30;;;;;;5114119;28;20102;-76
2021/09/06 07:17:24;;;;;;;9.82;7.05;;;18.40;68.10;;;;;;5114253;28;20031;-76
2021/09/06 07:19:50;;;;;;;9.88;6.50;;;18.50;67.70;;;;;;5113974;28;20020;-76
2021/09/06 07:22:16;;;;;;;10.32;7.45;;;18.60;67.10;;;;;;5113982;28;20028;-76
2021/09/06 07:24:42;;;;;;;11.43;7.35;;;18.70;66.60;;;;;;5114140;28;20012;-76
2021/09/06 07:27:07;;;;;;;12.48;7.78;;;18.90;66.30;;;;;;5113975;28;20341;-76
2021/09/06 07:29:33;;;;;;;10.70;7.60;;;18.90;65.80;;;;;;5114960;28;20106;-77
2021/09/06 07:32:00;;;;;;;10.50;7.18;;;19.00;65.50;;;;;;5121962;28;20011;-76
2021/09/06 07:34:25;;;;;;;9.40;7.20;;;19.10;65.40;;;;;;5116867;28;20031;-75
2021/09/06 07:36:51;;;;;;;10.15;7.13;;;19.20;65.60;;;;;;5119400;28;20065;-76
2021/09/06 07:39:16;;;;;;;8.23;6.15;;;19.20;65.40;;;;;;5113825;28;20364;-77
2021/09/06 07:41:45;;;;;;;9.13;7.15;;;19.40;65.10;;;;;;5113690;28;20100;-77
2021/09/06 07:44:11;;;;;;;13.50;7.60;;;19.40;64.80;;;;;;5113265;28;20511;-77
2021/09/06 07:46:37;;;;;;;10.25;7.10;;;19.50;64.80;;;;;;5113445;28;20024;-76
2021/09/06 07:49:03;;;;;;;8.43;6.50;;;19.60;64.70;;;;;;5113355;28;20032;-76
2021/09/06 07:51:29;;;;;;;9.05;6.85;;;19.70;64.20;;;;;;5095088;28;20015;-77
2021/09/06 07:53:54;;;;;;;12.27;7.25;;;19.80;63.70;;;;;;5095459;28;20038;-78
2021/09/06 07:56:20;;;;;;;10.05;7.32;;;19.90;63.10;;;;;;5114101;28;20468;-77
2021/09/06 07:58:46;;;;;;;11.55;7.20;;;19.70;63.90;;;;;;5113482;28;20495;-77
2021/09/06 08:01:11;;;;;;;10.93;6.82;;;19.80;63.90;;;;;;5113414;28;20101;-76
2021/09/06 08:03:37;;;;;;;10.13;6.45;;;19.90;63.80;;;;;;5113260;28;20112;-77
2021/09/06 08:06:03;;;;;;;11.30;6.95;;;19.90;64.10;;;;;;5112893;28;20035;-76
2021/09/06 08:08:28;;;;;;;10.35;6.93;;;19.90;64.50;;;;;;5112823;28;20062;-77
2021/09/06 08:10:54;;;;;;;8.88;6.55;;;19.90;64.60;;;;;;5113251;28;20031;-74
2021/09/06 08:13:20;;;;;;;10.40;6.70;;;20.00;64.20;;;;;;5114187;28;20023;-76
2021/09/06 08:15:45;;;;;;;8.60;6.85;;;19.90;64.40;;;;;;5116029;28;20475;-76
2021/09/06 08:18:11;;;;;;;11.32;7.32;;;20.00;64.20;;;;;;5113874;28;20042;-82
2021/09/06 08:20:39;;;;;;;11.77;6.30;;;20.10;63.60;;;;;;5113302;28;20019;-75
2021/09/06 08:23:04;;;;;;;8.57;7.25;;;20.30;63.70;;;;;;5113260;28;20028;-75
2021/09/06 08:25:30;;;;;;;13.43;7.18;;;20.40;62.40;;;;;;5113224;28;20046;-73
2021/09/06 08:27:56;;;;;;;9.70;6.47;;;20.40;62.70;;;;;;5112744;28;20027;-75
2021/09/06 08:30:22;;;;;;;7.75;6.18;;;20.60;61.50;;;;;;5113129;28;20030;-75
2021/09/06 08:32:48;;;;;;;7.25;5.78;;;20.70;61.00;;;;;;5113178;28;20102;-75
2021/09/06 08:35:14;;;;;;;8.38;5.85;;;20.90;60.80;;;;;;5113411;28;20086;-74
2021/09/06 08:37:41;;;;;;;8.52;6.15;;;21.00;60.40;;;;;;5095124;28;20549;-75
2021/09/06 08:40:09;;;;;;;11.65;6.32;;;21.20;59.90;;;;;;5113312;28;20024;-74
2021/09/06 08:42:37;;;;;;;8.45;6.90;;;21.40;59.60;;;;;;5113264;28;20384;-76
2021/09/06 08:45:03;;;;;;;9.32;6.35;;;21.40;59.30;;;;;;5094666;28;20462;-74
2021/09/06 08:47:29;;;;;;;7.68;5.80;;;21.40;58.90;;;;;;5112662;28;20028;-73
2021/09/06 08:49:55;;;;;;;10.88;6.13;;;21.40;59.10;;;;;;5112851;28;20442;-75
2021/09/06 08:52:20;;;;;;;11.43;6.60;;;21.30;58.60;;;;;;5112983;28;20016;-74
2021/09/06 08:54:46;;;;;;;9.18;6.13;;;21.30;59.60;;;;;;5113049;28;20103;-73
2021/09/06 08:57:12;;;;;;;10.07;6.78;;;21.40;59.60;;;;;;5113008;28;20023;-73
2021/09/06 08:59:44;;;;;;;12.68;7.60;;;21.40;59.60;;;;;;5112757;28;20016;-76
2021/09/06 09:02:09;;;;;;;8.57;6.72;;;21.40;57.40;;;;;;5112667;28;20032;-73
2021/09/06 09:04:35;;;;;;;9.02;6.28;;;21.50;53.20;;;;;;5112202;28;20030;-78
2021/09/06 09:07:03;;;;;;;8.57;6.25;;;21.70;46.60;;;;;;5112785;28;20483;-79
2021/09/06 09:09:37;;;;;;;8.95;6.20;;;21.90;46.20;;;;;;5112781;28;20016;-73
2021/09/06 09:12:16;;;;;;;8.05;6.05;;;22.20;43.50;;;;;;5114693;28;20103;-86
2021/09/06 09:14:50;;;;;;;7.63;5.88;;;22.40;43.10;;;;;;5113412;28;20027;-74
2021/09/06 09:17:17;;;;;;;9.95;5.88;;;22.60;43.50;;;;;;5113911;28;20042;-74
2021/09/06 09:19:43;;;;;;;7.43;6.07;;;22.80;42.60;;;;;;5116549;28;20597;-74
2021/09/06 09:22:11;;;;;;;10.65;6.00;;;23.00;42.30;;;;;;5116464;28;20051;-74
2021/09/06 09:24:37;;;;;;;7.28;5.68;;;23.10;39.00;;;;;;5116321;28;20491;-73
2021/09/06 09:27:06;;;;;;;11.13;6.00;;;23.10;39.50;;;;;;5115873;28;20031;-72
2021/09/06 09:29:32;;;;;;;7.68;5.60;;;23.20;37.40;;;;;;5115887;28;20503;-74
2021/09/06 09:32:04;;;;;;;10.10;5.45;;;23.30;38.00;;;;;;5115886;28;20020;-73
2021/09/06 09:34:30;;;;;;;8.25;5.80;;;23.40;37.60;;;;;;5115820;28;20027;-74
2021/09/06 09:36:57;;;;;;;6.53;5.50;;;23.40;36.90;;;;;;5115735;28;20442;-72
2021/09/06 09:39:23;;;;;;;9.10;5.63;;;23.50;37.10;;;;;;5115826;28;20080;-74
2021/09/06 09:41:52;;;;;;;7.38;5.45;;;23.60;37.20;;;;;;5115817;28;20027;-76
2021/09/06 09:44:20;;;;;;;7.47;5.30;;;23.70;36.90;;;;;;5115797;28;20486;-74
2021/09/06 09:46:53;;;;;;;15.30;5.55;;;23.80;35.40;;;;;;5115790;28;20092;-72
2021/09/06 09:49:19;;;;;;;7.43;5.68;;;23.90;34.90;;;;;;5115541;28;20084;-72
2021/09/06 09:51:45;;;;;;;5.78;5.05;;;24.00;33.30;;;;;;5115688;28;20020;-73
2021/09/06 09:54:11;;;;;;;5.07;4.57;;;24.10;34.00;;;;;;5115676;28;20031;-74
2021/09/06 09:56:36;;;;;;;5.32;4.82;;;24.30;35.30;;;;;;5115181;28;20023;-76
2021/09/06 09:59:02;;;;;;;7.60;5.15;;;24.60;34.90;;;;;;5115981;28;20081;-79
2021/09/06 10:01:32;;;;;;;11.75;7.78;;;24.80;33.60;;;;;;5115527;28;20103;-73
2021/09/06 10:03:59;;;;;;;10.93;7.65;;;24.80;32.60;;;;;;5114683;28;20051;-72
2021/09/06 10:06:26;;;;;;;19.13;12.52;;;24.80;31.60;;;;;;5115172;28;20031;-73
2021/09/06 10:08:53;;;;;;;11.27;8.48;;;25.00;31.90;;;;;;5115094;28;20042;-72
2021/09/06 10:11:18;;;;;;;7.20;5.90;;;25.00;31.30;;;;;;5115506;28;20099;-72
2021/09/06 10:13:44;;;;;;;6.53;5.28;;;25.00;30.50;;;;;;5115323;28;20539;-71
2021/09/06 10:16:10;;;;;;;8.93;5.55;;;24.80;28.50;;;;;;5116920;28;20019;-72
2021/09/06 10:18:38;;;;;;;8.63;5.78;;;24.80;29.60;;;;;;5120810;28;20027;-71
2021/09/06 10:21:17;;;;;;;9.82;5.20;;;24.80;31.20;;;;;;5118436;28;20083;-76
2021/09/06 10:23:48;;;;;;;6.93;5.57;;;24.80;30.70;;;;;;5116044;28;20059;-74
2021/09/06 10:26:14;;;;;;;7.65;5.22;;;24.70;30.40;;;;;;5115503;28;20035;-73
2021/09/06 10:28:39;;;;;;;9.40;5.13;;;24.80;31.60;;;;;;5114917;28;20115;-73
2021/09/06 10:31:16;;;;;;;5.60;4.95;;;25.00;30.70;;;;;;5114344;28;20044;-72
2021/09/06 10:33:43;;;;;;;8.65;5.43;;;25.00;31.00;;;;;;5115390;28;20031;-71
2021/09/06 10:36:18;;;;;;;6.35;4.97;;;25.20;30.20;;;;;;5114825;28;20129;-73
2021/09/06 10:38:45;;;;;;;;;;;25.20;29.60;;;;;;5115341;28;20124;-71
2021/09/06 10:41:14;;;;;;;7.93;5.50;;;25.30;29.80;;;;;;5114855;28;19946;-73
2021/09/06 10:43:47;;;;;;;7.28;5.35;;;25.40;29.80;;;;;;5114739;28;20407;-72
2021/09/06 10:46:14;;;;;;;6.10;4.85;;;25.40;29.70;;;;;;5114634;28;20023;-72
2021/09/06 10:48:39;;;;;;;7.10;5.03;;;25.70;31.30;;;;;;5114775;28;20411;-73
2021/09/06 10:51:05;;;;;;;7.22;4.82;;;26.00;31.30;;;;;;5114503;28;20030;-74
2021/09/06 10:53:31;;;;;;;6.90;5.25;;;26.20;29.80;;;;;;5114526;28;20024;-73
2021/09/06 10:55:58;;;;;;;6.03;4.82;;;26.30;28.20;;;;;;5114601;28;20429;-72
2021/09/06 10:58:26;;;;;;;6.75;4.82;;;26.50;28.00;;;;;;5114494;28;20103;-73
2021/09/06 11:00:57;;;;;;;5.75;4.90;;;26.60;26.60;;;;;;5114034;28;20030;-71
2021/09/06 11:03:25;;;;;;;8.27;4.80;;;26.70;27.20;;;;;;5114011;28;20495;-72
2021/09/06 11:05:56;;;;;;;5.63;4.53;;;26.70;29.30;;;;;;5114324;28;20046;-72
2021/09/06 11:08:28;;;;;;;7.32;4.70;;;27.00;29.50;;;;;;5114750;28;20443;-72
2021/09/06 11:10:54;;;;;;;8.95;4.70;;;27.30;28.60;;;;;;5116494;28;20100;-73
2021/09/06 11:13:20;;;;;;;9.60;4.85;;;27.40;25.60;;;;;;5114223;28;20380;-73
2021/09/06 11:15:46;;;;;;;5.88;5.28;;;27.20;25.50;;;;;;5114053;28;20023;-76
2021/09/06 11:18:11;;;;;;;8.50;5.18;;;27.00;25.60;;;;;;5114138;28;20027;-72
2021/09/06 11:20:38;;;;;;;7.30;4.30;;;26.80;26.40;;;;;;5114134;28;20031;-73
2021/09/06 11:23:05;;;;;;;5.65;4.97;;;27.00;27.50;;;;;;5095625;28;20391;-72
2021/09/06 11:25:33;;;;;;;6.15;4.10;;;27.10;26.50;;;;;;5113740;28;20498;-74
2021/09/06 11:28:07;;;;;;;5.82;4.50;;;27.10;25.40;;;;;;5095211;28;20131;-72
2021/09/06 11:30:35;;;;;;;7.35;4.25;;;27.20;25.20;;;;;;5113948;28;20059;-72
2021/09/06 11:33:05;;;;;;;5.47;4.32;;;27.40;25.30;;;;;;5113453;28;20019;-71
2021/09/06 11:35:32;;;;;;;5.68;4.28;;;27.40;24.60;;;;;;5113620;28;20042;-72
2021/09/06 11:37:58;;;;;;;5.85;4.72;;;27.40;24.40;;;;;;5113358;28;20521;-72
2021/09/06 11:40:24;;;;;;;5.35;3.92;;;27.40;25.10;;;;;;5113576;28;20019;-73
2021/09/06 11:42:51;;;;;;;5.03;4.53;;;27.50;24.60;;;;;;5112875;28;20028;-72
2021/09/06 11:45:19;;;;;;;5.90;5.15;;;27.50;25.00;;;;;;5113508;28;20467;-73
2021/09/06 11:48:03;;;;;;;5.53;4.30;;;27.60;25.90;;;;;;5113855;28;20035;-75
2021/09/06 11:50:37;;;;;;;8.65;4.25;;;27.90;25.90;;;;;;5114230;28;20025;-74
2021/09/06 11:53:06;;;;;;;5.97;4.43;;;28.10;24.70;;;;;;5113478;28;20117;-72
2021/09/06 11:55:32;;;;;;;4.97;3.92;;;28.10;24.20;;;;;;5113368;28;20495;-73
2021/09/06 11:58:14;;;;;;;6.15;4.22;;;28.30;24.80;;;;;;5113236;28;20052;-74
2021/09/06 12:00:41;;;;;;;5.68;4.07;;;28.60;25.30;;;;;;5113338;28;20545;-72
2021/09/06 12:03:09;;;;;;;4.45;4.05;;;28.80;23.90;;;;;;5112939;28;20187;-72
2021/09/06 12:05:39;;;;;;;5.45;3.70;;;29.00;23.50;;;;;;5094917;28;20024;-74
2021/09/06 12:08:11;;;;;;;5.65;4.70;;;28.60;22.60;;;;;;5113167;28;20031;-73
2021/09/06 12:10:38;;;;;;;8.70;4.97;;;28.10;23.30;;;;;;5113309;28;20027;-73
2021/09/06 12:13:11;;;;;;;8.27;4.22;;;28.20;24.40;;;;;;5113214;28;20027;-72
2021/09/06 12:15:58;;;;;;;5.68;3.90;;;28.40;25.00;;;;;;5113200;28;20102;-73
2021/09/06 12:18:38;;;;;;;7.03;4.10;;;28.80;24.80;;;;;;5113290;28;20023;-72
2021/09/06 12:21:15;;;;;;;5.80;4.55;;;29.00;23.70;;;;;;5113254;28;20062;-73
2021/09/06 12:23:42;;;;;;;5.65;4.20;;;29.10;23.00;;;;;;5113253;28;20020;-73
2021/09/06 12:26:09;;;;;;;5.82;4.30;;;29.00;22.60;;;;;;5113216;28;20020;-72
2021/09/06 12:28:49;;;;;;;7.22;5.53;;;29.00;22.80;;;;;;5095120;28;20031;-78
2021/09/06 12:31:15;;;;;;;7.00;4.70;;;29.10;23.20;;;;;;5112938;28;20098;-76
2021/09/06 12:33:41;;;;;;;9.05;4.57;;;29.20;22.60;;;;;;5112849;28;20027;-73
2021/09/06 12:36:07;;;;;;;9.32;5.88;;;29.10;22.40;;;;;;5113021;28;20383;-72
2021/09/06 12:38:34;;;;;;;5.22;4.60;;;29.10;22.70;;;;;;5113089;28;20153;-73
2021/09/06 12:41:00;;;;;;;5.15;4.10;;;29.00;23.60;;;;;;5112930;28;20102;-74